createdAt,value
2019-02-27T00:00:22.688Z,1011.96
2019-02-27T00:01:22.680Z,1011.98
2019-02-27T00:02:23.351Z,1012.02
2019-02-27T00:03:22.654Z,1011.99
2019-02-27T00:04:22.636Z,1012.00
2019-02-27T00:05:22.650Z,1011.94
2019-02-27T00:06:22.700Z,1011.98
2019-02-27T00:07:22.614Z,1011.96
2019-02-27T00:08:26.571Z,1011.92
2019-02-27T00:09:22.579Z,1011.95
2019-02-27T00:10:22.571Z,1011.91
2019-02-27T00:11:22.796Z,1011.91
2019-02-27T00:12:22.592Z,1011.95
2019-02-27T00:13:24.835Z,1011.93
2019-02-27T00:14:22.573Z,1011.94
2019-02-27T00:15:22.523Z,1011.92
2019-02-27T00:16:22.530Z,1011.91
2019-02-27T00:17:22.529Z,1011.87
2019-02-27T00:18:23.963Z,1011.88
2019-02-27T00:19:22.491Z,1011.84
2019-02-27T00:20:22.469Z,1011.87
2019-02-27T00:21:22.455Z,1011.85
2019-02-27T00:22:22.436Z,1011.79
2019-02-27T00:23:24.143Z,1011.81
2019-02-27T00:24:22.414Z,1011.82
2019-02-27T00:25:22.401Z,1011.78
2019-02-27T00:26:22.401Z,1011.81
2019-02-27T00:27:22.383Z,1011.81
2019-02-27T00:28:23.437Z,1011.82
2019-02-27T00:29:22.557Z,1011.79
2019-02-27T00:30:22.345Z,1011.78
2019-02-27T00:31:22.330Z,1011.73
2019-02-27T00:32:22.326Z,1011.71
2019-02-27T00:33:25.056Z,1011.71
2019-02-27T00:34:22.304Z,1011.72
2019-02-27T00:35:22.359Z,1011.73
2019-02-27T00:36:22.283Z,1011.66
2019-02-27T00:37:22.276Z,1011.73
2019-02-27T00:38:22.767Z,1011.73
2019-02-27T00:39:22.318Z,1011.63
2019-02-27T00:40:22.234Z,1011.62
2019-02-27T00:41:22.314Z,1011.62
2019-02-27T00:42:23.056Z,1011.66
2019-02-27T00:43:22.206Z,1011.64
2019-02-27T00:44:22.200Z,1011.60
2019-02-27T00:45:22.183Z,1011.64
2019-02-27T00:46:22.169Z,1011.60
2019-02-27T00:47:22.212Z,1011.66
2019-02-27T00:48:26.015Z,1011.59
2019-02-27T00:49:22.155Z,1011.55
2019-02-27T00:50:22.145Z,1011.59
2019-02-27T00:51:22.118Z,1011.55
2019-02-27T00:52:22.102Z,1011.57
2019-02-27T00:53:24.574Z,1011.61
2019-02-27T00:54:22.088Z,1011.58
2019-02-27T00:55:22.070Z,1011.58
2019-02-27T00:56:22.072Z,1011.60
2019-02-27T00:57:22.049Z,1011.60
2019-02-27T00:58:22.047Z,1011.59
2019-02-27T00:59:22.092Z,1011.59
2019-02-27T01:00:22.022Z,1011.53
2019-02-27T01:01:22.008Z,1011.55
2019-02-27T01:02:22.006Z,1011.52
2019-02-27T01:03:25.922Z,1011.56
2019-02-27T01:04:21.980Z,1011.59
2019-02-27T01:05:22.023Z,1011.53
2019-02-27T01:06:21.952Z,1011.53
2019-02-27T01:07:21.963Z,1011.48
2019-02-27T01:08:21.929Z,1011.52
2019-02-27T01:09:21.987Z,1011.57
2019-02-27T01:10:21.903Z,1011.51
2019-02-27T01:11:21.949Z,1011.52
2019-02-27T01:12:22.974Z,1011.47
2019-02-27T01:13:21.867Z,1011.51
2019-02-27T01:14:21.876Z,1011.49
2019-02-27T01:15:21.846Z,1011.52
2019-02-27T01:16:21.886Z,1011.46
2019-02-27T01:17:23.873Z,1011.45
2019-02-27T01:18:21.823Z,1011.48
2019-02-27T01:19:21.809Z,1011.43
2019-02-27T01:20:21.794Z,1011.48
2019-02-27T01:21:21.815Z,1011.46
2019-02-27T01:22:21.780Z,1011.42
2019-02-27T01:23:21.813Z,1011.42
2019-02-27T01:24:21.789Z,1011.44
2019-02-27T01:25:23.137Z,1011.44
2019-02-27T01:26:21.731Z,1011.45
2019-02-27T01:27:21.738Z,1011.42
2019-02-27T01:28:21.742Z,1011.39
2019-02-27T01:29:21.752Z,1011.38
2019-02-27T01:30:23.991Z,1011.34
2019-02-27T01:31:21.972Z,1011.29
2019-02-27T01:32:21.681Z,1011.32
2019-02-27T01:33:21.693Z,1011.27
2019-02-27T01:34:21.680Z,1011.28
2019-02-27T01:35:21.663Z,1011.26
2019-02-27T01:36:24.235Z,1011.25
2019-02-27T01:37:21.611Z,1011.21
2019-02-27T01:38:21.663Z,1011.24
2019-02-27T01:39:21.628Z,1011.22
2019-02-27T01:40:21.618Z,1011.18
2019-02-27T01:41:24.436Z,1011.19
2019-02-27T01:42:21.670Z,1011.15
2019-02-27T01:43:21.551Z,1011.15
2019-02-27T01:44:21.547Z,1011.13
2019-02-27T01:45:21.769Z,1011.07
2019-02-27T01:46:21.514Z,1011.08
2019-02-27T01:47:21.537Z,1011.10
2019-02-27T01:48:21.511Z,1011.05
2019-02-27T01:49:21.496Z,1011.06
2019-02-27T01:50:22.698Z,1011.07
2019-02-27T01:51:21.474Z,1011.06
2019-02-27T01:52:21.447Z,1011.06
2019-02-27T01:53:21.521Z,1011.06
2019-02-27T01:54:21.427Z,1011.03
2019-02-27T01:55:22.390Z,1011.03
2019-02-27T01:56:21.451Z,1010.99
2019-02-27T01:57:21.402Z,1011.05
2019-02-27T01:58:21.386Z,1010.99
2019-02-27T01:59:21.434Z,1010.98
2019-02-27T02:00:23.271Z,1011.03
2019-02-27T02:01:21.381Z,1010.98
2019-02-27T02:02:21.394Z,1011.01
2019-02-27T02:03:21.336Z,1010.95
2019-02-27T02:04:21.337Z,1010.99
2019-02-27T02:05:26.069Z,1010.98
2019-02-27T02:06:22.309Z,1010.91
2019-02-27T02:07:21.337Z,1010.96
2019-02-27T02:08:21.275Z,1010.98
2019-02-27T02:09:21.679Z,1010.97
2019-02-27T02:10:21.254Z,1010.97
2019-02-27T02:11:21.302Z,1010.90
2019-02-27T02:12:21.234Z,1010.88
2019-02-27T02:13:21.258Z,1010.84
2019-02-27T02:14:21.655Z,1010.82
2019-02-27T02:15:21.204Z,1010.86
2019-02-27T02:16:21.205Z,1010.80
2019-02-27T02:17:21.236Z,1010.82
2019-02-27T02:18:21.173Z,1010.75
2019-02-27T02:19:21.447Z,1010.76
2019-02-27T02:20:21.143Z,1010.76
2019-02-27T02:21:21.146Z,1010.76
2019-02-27T02:22:21.198Z,1010.72
2019-02-27T02:23:21.172Z,1010.68
2019-02-27T02:24:21.669Z,1010.69
2019-02-27T02:25:21.133Z,1010.67
2019-02-27T02:26:21.098Z,1010.62
2019-02-27T02:27:21.079Z,1010.62
2019-02-27T02:28:21.056Z,1010.60
2019-02-27T02:29:21.132Z,1010.58
2019-02-27T02:30:21.048Z,1010.57
2019-02-27T02:31:21.056Z,1010.57
2019-02-27T02:32:21.010Z,1010.52
2019-02-27T02:33:21.004Z,1010.57
2019-02-27T02:34:21.084Z,1010.55
2019-02-27T02:35:21.041Z,1010.52
2019-02-27T02:36:25.126Z,1010.50
2019-02-27T02:37:22.026Z,1010.46
2019-02-27T02:38:20.964Z,1010.44
2019-02-27T02:39:20.965Z,1010.43
2019-02-27T02:40:20.992Z,1010.46
2019-02-27T02:41:20.958Z,1010.37
2019-02-27T02:42:24.244Z,1010.36
2019-02-27T02:43:20.900Z,1010.38
2019-02-27T02:44:21.961Z,1010.33
2019-02-27T02:45:20.906Z,1010.35
2019-02-27T02:46:20.903Z,1010.32
2019-02-27T02:47:21.498Z,1010.30
2019-02-27T02:48:20.876Z,1010.34
2019-02-27T02:49:20.851Z,1010.32
2019-02-27T02:50:20.861Z,1010.29
2019-02-27T02:51:20.806Z,1010.29
2019-02-27T02:52:20.810Z,1010.30
2019-02-27T02:53:24.990Z,1010.26
2019-02-27T02:54:20.771Z,1010.27
2019-02-27T02:55:20.801Z,1010.23
2019-02-27T02:56:23.755Z,1010.29
2019-02-27T02:57:20.749Z,1010.20
2019-02-27T02:58:20.735Z,1010.24
2019-02-27T02:59:24.514Z,1010.19
2019-02-27T03:00:20.715Z,1010.19
2019-02-27T03:01:20.728Z,1010.23
2019-02-27T03:02:23.485Z,1010.18
2019-02-27T03:03:20.710Z,1010.20
2019-02-27T03:04:20.677Z,1010.18
2019-02-27T03:05:23.619Z,1010.13
2019-02-27T03:06:20.650Z,1010.11
2019-02-27T03:07:20.647Z,1010.10
2019-02-27T03:08:21.091Z,1010.04
2019-02-27T03:09:20.611Z,1010.12
2019-02-27T03:10:20.609Z,1010.08
2019-02-27T03:11:20.627Z,1010.03
2019-02-27T03:12:20.576Z,1010.09
2019-02-27T03:13:20.631Z,1010.08
2019-02-27T03:14:20.584Z,1010.04
2019-02-27T03:15:20.552Z,1010.03
2019-02-27T03:16:20.570Z,1010.04
2019-02-27T03:17:20.577Z,1010.05
2019-02-27T03:18:20.527Z,1010.08
2019-02-27T03:19:20.504Z,1010.08
2019-02-27T03:20:20.495Z,1010.06
2019-02-27T03:21:20.500Z,1010.10
2019-02-27T03:22:20.504Z,1010.12
2019-02-27T03:23:20.511Z,1010.09
2019-02-27T03:24:20.466Z,1010.13
2019-02-27T03:25:20.440Z,1010.18
2019-02-27T03:26:20.431Z,1010.15
2019-02-27T03:27:20.422Z,1010.08
2019-02-27T03:28:20.426Z,1010.10
2019-02-27T03:29:20.439Z,1010.14
2019-02-27T03:30:20.389Z,1010.11
2019-02-27T03:31:20.421Z,1010.13
2019-02-27T03:32:20.368Z,1010.10
2019-02-27T03:33:24.485Z,1010.08
2019-02-27T03:34:21.401Z,1010.07
2019-02-27T03:35:27.567Z,1010.06
2019-02-27T03:36:21.318Z,1010.03
2019-02-27T03:37:20.345Z,1010.05
2019-02-27T03:38:23.774Z,1010.00
2019-02-27T03:39:20.287Z,1009.98
2019-02-27T03:40:20.369Z,1009.94
2019-02-27T03:41:22.821Z,1009.99
2019-02-27T03:42:20.269Z,1009.92
2019-02-27T03:43:20.260Z,1009.87
2019-02-27T03:44:21.545Z,1009.91
2019-02-27T03:45:20.251Z,1009.94
2019-02-27T03:46:20.259Z,1009.90
2019-02-27T03:47:20.201Z,1009.90
2019-02-27T03:48:20.193Z,1009.88
2019-02-27T03:49:20.180Z,1009.92
2019-02-27T03:50:20.188Z,1009.87
2019-02-27T03:51:24.306Z,1009.88
2019-02-27T03:52:21.234Z,1009.89
2019-02-27T03:53:20.141Z,1009.90
2019-02-27T03:54:21.207Z,1009.94
2019-02-27T03:55:20.129Z,1009.94
2019-02-27T03:56:20.118Z,1009.89
2019-02-27T03:57:20.439Z,1009.88
2019-02-27T03:58:20.171Z,1009.87
2019-02-27T03:59:20.080Z,1009.89
2019-02-27T04:00:20.061Z,1009.87
2019-02-27T04:01:20.052Z,1009.87
2019-02-27T04:02:20.043Z,1009.86
2019-02-27T04:03:20.079Z,1009.90
2019-02-27T04:04:20.125Z,1009.88
2019-02-27T04:05:20.025Z,1009.84
2019-02-27T04:06:21.442Z,1009.91
2019-02-27T04:07:19.988Z,1009.84
2019-02-27T04:08:19.984Z,1009.86
2019-02-27T04:09:20.241Z,1009.88
2019-02-27T04:10:20.049Z,1009.77
2019-02-27T04:11:19.955Z,1009.81
2019-02-27T04:12:19.934Z,1009.82
2019-02-27T04:13:19.921Z,1009.84
2019-02-27T04:14:19.909Z,1009.87
2019-02-27T04:15:19.901Z,1009.85
2019-02-27T04:16:20.111Z,1009.89
2019-02-27T04:17:19.912Z,1009.89
2019-02-27T04:18:19.862Z,1009.91
2019-02-27T04:19:19.859Z,1009.87
2019-02-27T04:20:19.857Z,1009.87
2019-02-27T04:21:25.041Z,1009.85
2019-02-27T04:22:20.861Z,1009.82
2019-02-27T04:23:19.914Z,1009.80
2019-02-27T04:24:22.422Z,1009.79
2019-02-27T04:25:19.831Z,1009.83
2019-02-27T04:26:19.793Z,1009.76
2019-02-27T04:27:21.216Z,1009.81
2019-02-27T04:28:19.787Z,1009.80
2019-02-27T04:29:19.750Z,1009.81
2019-02-27T04:30:19.732Z,1009.83
2019-02-27T04:31:19.721Z,1009.84
2019-02-27T04:32:19.716Z,1009.78
2019-02-27T04:33:23.179Z,1009.78
2019-02-27T04:34:19.882Z,1009.77
2019-02-27T04:35:19.674Z,1009.77
2019-02-27T04:36:19.667Z,1009.74
2019-02-27T04:37:20.334Z,1009.77
2019-02-27T04:38:19.642Z,1009.71
2019-02-27T04:39:19.638Z,1009.71
2019-02-27T04:40:19.651Z,1009.71
2019-02-27T04:41:19.609Z,1009.64
2019-02-27T04:42:19.618Z,1009.67
2019-02-27T04:43:19.592Z,1009.63
2019-02-27T04:44:19.581Z,1009.67
2019-02-27T04:45:19.585Z,1009.64
2019-02-27T04:46:21.561Z,1009.57
2019-02-27T04:47:19.558Z,1009.61
2019-02-27T04:48:19.538Z,1009.57
2019-02-27T04:49:19.543Z,1009.59
2019-02-27T04:50:19.515Z,1009.61
2019-02-27T04:51:19.502Z,1009.61
2019-02-27T04:52:21.986Z,1009.58
2019-02-27T04:53:19.480Z,1009.54
2019-02-27T04:54:19.474Z,1009.56
2019-02-27T04:55:19.465Z,1009.52
2019-02-27T04:56:23.123Z,1009.57
2019-02-27T04:57:19.444Z,1009.58
2019-02-27T04:58:19.457Z,1009.53
2019-02-27T04:59:19.423Z,1009.48
2019-02-27T05:00:19.431Z,1009.60
2019-02-27T05:01:19.407Z,1009.53
2019-02-27T05:02:19.384Z,1009.53
2019-02-27T05:03:19.374Z,1009.56
2019-02-27T05:04:19.549Z,1009.55
2019-02-27T05:05:19.357Z,1009.55
2019-02-27T05:06:19.338Z,1009.54
2019-02-27T05:07:20.350Z,1009.55
2019-02-27T05:08:19.327Z,1009.51
2019-02-27T05:09:19.320Z,1009.56
2019-02-27T05:10:19.354Z,1009.56
2019-02-27T05:11:19.313Z,1009.57
2019-02-27T05:12:19.277Z,1009.59
2019-02-27T05:13:20.859Z,1009.62
2019-02-27T05:14:19.270Z,1009.60
2019-02-27T05:15:19.261Z,1009.59
2019-02-27T05:16:19.263Z,1009.53
2019-02-27T05:17:21.507Z,1009.50
2019-02-27T05:18:19.218Z,1009.48
2019-02-27T05:19:19.195Z,1009.48
2019-02-27T05:20:19.202Z,1009.45
2019-02-27T05:21:19.801Z,1009.45
2019-02-27T05:22:19.219Z,1009.42
2019-02-27T05:23:19.160Z,1009.47
2019-02-27T05:24:19.147Z,1009.45
2019-02-27T05:25:19.138Z,1009.47
2019-02-27T05:26:19.141Z,1009.49
2019-02-27T05:27:19.114Z,1009.45
2019-02-27T05:28:19.398Z,1009.46
2019-02-27T05:29:19.092Z,1009.47
2019-02-27T05:30:19.088Z,1009.48
2019-02-27T05:31:19.194Z,1009.45
2019-02-27T05:32:19.076Z,1009.47
2019-02-27T05:33:19.053Z,1009.45
2019-02-27T05:34:19.076Z,1009.41
2019-02-27T05:35:23.572Z,1009.42
2019-02-27T05:36:20.036Z,1009.47
2019-02-27T05:37:19.020Z,1009.41
2019-02-27T05:38:18.992Z,1009.42
2019-02-27T05:39:18.979Z,1009.41
2019-02-27T05:40:19.037Z,1009.40
2019-02-27T05:41:18.965Z,1009.35
2019-02-27T05:42:19.011Z,1009.37
2019-02-27T05:43:18.954Z,1009.37
2019-02-27T05:44:21.206Z,1009.34
2019-02-27T05:45:18.980Z,1009.33
2019-02-27T05:46:18.943Z,1009.37
2019-02-27T05:47:18.913Z,1009.33
2019-02-27T05:48:20.031Z,1009.37
2019-02-27T05:49:18.897Z,1009.34
2019-02-27T05:50:18.866Z,1009.36
2019-02-27T05:51:18.872Z,1009.27
2019-02-27T05:52:18.906Z,1009.28
2019-02-27T05:53:22.154Z,1009.34
2019-02-27T05:54:18.823Z,1009.31
2019-02-27T05:55:18.812Z,1009.32
2019-02-27T05:56:18.798Z,1009.30
2019-02-27T05:57:22.930Z,1009.31
2019-02-27T05:58:22.849Z,1009.29
2019-02-27T05:59:18.773Z,1009.25
2019-02-27T06:00:18.768Z,1009.24
2019-02-27T06:01:18.754Z,1009.25
2019-02-27T06:02:18.736Z,1009.22
2019-02-27T06:03:19.051Z,1009.27
2019-02-27T06:04:18.771Z,1009.28
2019-02-27T06:05:18.711Z,1009.28
2019-02-27T06:06:18.701Z,1009.32
2019-02-27T06:07:19.568Z,1009.30
2019-02-27T06:08:18.704Z,1009.32
2019-02-27T06:09:18.662Z,1009.30
2019-02-27T06:10:20.101Z,1009.34
2019-02-27T06:11:18.643Z,1009.33
2019-02-27T06:12:18.626Z,1009.33
2019-02-27T06:13:18.627Z,1009.38
2019-02-27T06:14:21.152Z,1009.29
2019-02-27T06:15:18.598Z,1009.28
2019-02-27T06:16:18.768Z,1009.28
2019-02-27T06:17:18.631Z,1009.29
2019-02-27T06:18:22.442Z,1009.27
2019-02-27T06:19:18.564Z,1009.23
2019-02-27T06:20:18.542Z,1009.27
2019-02-27T06:21:18.528Z,1009.24
2019-02-27T06:22:18.571Z,1009.20
2019-02-27T06:23:18.509Z,1009.22
2019-02-27T06:24:18.514Z,1009.26
2019-02-27T06:25:22.296Z,1009.26
2019-02-27T06:26:19.482Z,1009.32
2019-02-27T06:27:18.470Z,1009.26
2019-02-27T06:28:19.336Z,1009.31
2019-02-27T06:29:18.449Z,1009.28
2019-02-27T06:30:18.430Z,1009.28
2019-02-27T06:31:18.425Z,1009.30
2019-02-27T06:32:18.420Z,1009.30
2019-02-27T06:33:18.407Z,1009.34
2019-02-27T06:34:18.518Z,1009.28
2019-02-27T06:35:18.440Z,1009.30
2019-02-27T06:36:18.379Z,1009.28
2019-02-27T06:37:18.358Z,1009.29
2019-02-27T06:38:18.359Z,1009.25
2019-02-27T06:39:18.351Z,1009.27
2019-02-27T06:40:18.571Z,1009.24
2019-02-27T06:41:18.360Z,1009.33
2019-02-27T06:42:18.400Z,1009.26
2019-02-27T06:43:18.296Z,1009.26
2019-02-27T06:44:19.121Z,1009.20
2019-02-27T06:45:18.273Z,1009.16
2019-02-27T06:46:20.016Z,1009.17
2019-02-27T06:47:18.256Z,1009.17
2019-02-27T06:48:18.237Z,1009.22
2019-02-27T06:49:18.417Z,1009.15
2019-02-27T06:50:18.214Z,1009.18
2019-02-27T06:51:18.208Z,1009.18
2019-02-27T06:52:18.240Z,1009.16
2019-02-27T06:53:18.201Z,1009.16
2019-02-27T06:54:18.951Z,1009.19
2019-02-27T06:55:18.231Z,1009.21
2019-02-27T06:56:18.160Z,1009.17
2019-02-27T06:57:18.142Z,1009.14
2019-02-27T06:58:18.187Z,1009.09
2019-02-27T06:59:18.312Z,1009.08
2019-02-27T07:00:18.157Z,1009.06
2019-02-27T07:01:18.128Z,1009.05
2019-02-27T07:02:19.080Z,1009.04
2019-02-27T07:03:18.098Z,1009.05
2019-02-27T07:04:18.130Z,1009.10
2019-02-27T07:05:18.077Z,1009.02
2019-02-27T07:06:21.276Z,1009.08
2019-02-27T07:07:18.043Z,1009.05
2019-02-27T07:08:18.036Z,1009.07
2019-02-27T07:09:18.018Z,1009.07
2019-02-27T07:10:19.989Z,1009.05
2019-02-27T07:11:18.025Z,1009.06
2019-02-27T07:12:21.679Z,1009.02
2019-02-27T07:13:17.965Z,1009.06
2019-02-27T07:14:17.956Z,1009.09
2019-02-27T07:15:17.944Z,1009.02
2019-02-27T07:16:20.458Z,1008.97
2019-02-27T07:17:17.919Z,1008.98
2019-02-27T07:18:17.915Z,1009.00
2019-02-27T07:19:17.915Z,1009.01
2019-02-27T07:20:17.901Z,1008.99
2019-02-27T07:21:17.882Z,1008.98
2019-02-27T07:22:17.932Z,1008.96
2019-02-27T07:23:22.826Z,1008.96
2019-02-27T07:24:18.849Z,1008.95
2019-02-27T07:25:17.868Z,1008.92
2019-02-27T07:26:17.936Z,1008.94
2019-02-27T07:27:17.848Z,1008.89
2019-02-27T07:28:17.878Z,1008.93
2019-02-27T07:29:21.744Z,1008.95
2019-02-27T07:30:18.779Z,1008.93
2019-02-27T07:31:18.509Z,1008.93
2019-02-27T07:32:17.759Z,1008.92
2019-02-27T07:33:17.749Z,1008.95
2019-02-27T07:34:17.813Z,1008.95
2019-02-27T07:35:17.723Z,1008.96
2019-02-27T07:36:17.750Z,1008.88
2019-02-27T07:37:17.700Z,1008.95
2019-02-27T07:38:21.430Z,1008.92
2019-02-27T07:39:17.699Z,1008.93
2019-02-27T07:40:17.702Z,1008.96
2019-02-27T07:41:20.264Z,1009.01
2019-02-27T07:42:17.653Z,1009.03
2019-02-27T07:43:17.639Z,1008.99
2019-02-27T07:44:17.623Z,1008.96
2019-02-27T07:45:17.663Z,1009.01
2019-02-27T07:46:22.200Z,1008.96
2019-02-27T07:47:18.620Z,1008.99
2019-02-27T07:48:17.581Z,1008.98
2019-02-27T07:49:17.620Z,1008.97
2019-02-27T07:50:17.574Z,1009.00
2019-02-27T07:51:17.555Z,1008.96
2019-02-27T07:52:17.832Z,1008.98
2019-02-27T07:53:18.299Z,1009.02
2019-02-27T07:54:17.536Z,1009.01
2019-02-27T07:55:22.020Z,1009.01
2019-02-27T07:56:18.596Z,1009.02
2019-02-27T07:57:17.509Z,1008.97
2019-02-27T07:58:17.789Z,1008.97
2019-02-27T07:59:18.585Z,1008.93
2019-02-27T08:00:17.458Z,1008.90
2019-02-27T08:01:17.495Z,1008.87
2019-02-27T08:02:17.434Z,1008.91
2019-02-27T08:03:17.419Z,1008.90
2019-02-27T08:04:19.610Z,1008.86
2019-02-27T08:05:17.396Z,1008.83
2019-02-27T08:06:17.428Z,1008.80
2019-02-27T08:07:17.380Z,1008.78
2019-02-27T08:08:17.435Z,1008.83
2019-02-27T08:09:17.350Z,1008.79
2019-02-27T08:10:17.395Z,1008.83
2019-02-27T08:11:17.326Z,1008.79
2019-02-27T08:12:17.509Z,1008.84
2019-02-27T08:13:17.307Z,1008.82
2019-02-27T08:14:17.349Z,1008.88
2019-02-27T08:15:17.281Z,1008.71
2019-02-27T08:16:17.443Z,1008.79
2019-02-27T08:17:18.027Z,1008.80
2019-02-27T08:18:20.497Z,1008.81
2019-02-27T08:19:18.236Z,1008.85
2019-02-27T08:20:20.180Z,1008.83
2019-02-27T08:21:17.217Z,1008.81
2019-02-27T08:22:17.250Z,1008.82
2019-02-27T08:23:17.192Z,1008.82
2019-02-27T08:24:17.182Z,1008.87
2019-02-27T08:25:17.173Z,1008.83
2019-02-27T08:26:18.473Z,1008.87
2019-02-27T08:27:17.184Z,1008.88
2019-02-27T08:28:17.176Z,1008.84
2019-02-27T08:29:17.131Z,1008.80
2019-02-27T08:30:17.118Z,1008.82
2019-02-27T08:31:17.109Z,1008.83
2019-02-27T08:32:17.154Z,1008.81
2019-02-27T08:33:17.085Z,1008.81
2019-02-27T08:34:17.126Z,1008.79
2019-02-27T08:35:17.073Z,1008.79
2019-02-27T08:36:17.053Z,1008.78
2019-02-27T08:37:17.044Z,1008.78
2019-02-27T08:38:17.059Z,1008.76
2019-02-27T08:39:17.017Z,1008.75
2019-02-27T08:40:17.042Z,1008.77
2019-02-27T08:41:17.005Z,1008.73
2019-02-27T08:42:16.986Z,1008.77
2019-02-27T08:43:16.976Z,1008.76
2019-02-27T08:44:17.000Z,1008.75
2019-02-27T08:45:20.000Z,1008.66
2019-02-27T08:46:17.136Z,1008.66
2019-02-27T08:47:17.034Z,1008.61
2019-02-27T08:48:18.083Z,1008.62
2019-02-27T08:49:16.909Z,1008.59
2019-02-27T08:50:16.937Z,1008.59
2019-02-27T08:51:16.887Z,1008.59
2019-02-27T08:52:16.922Z,1008.59
2019-02-27T08:53:16.867Z,1008.57
2019-02-27T08:54:16.910Z,1008.56
2019-02-27T08:55:21.818Z,1008.55
2019-02-27T08:56:17.886Z,1008.56
2019-02-27T08:57:16.821Z,1008.56
2019-02-27T08:58:16.841Z,1008.53
2019-02-27T08:59:16.796Z,1008.58
2019-02-27T09:00:16.792Z,1008.51
2019-02-27T09:01:19.086Z,1008.54
2019-02-27T09:02:16.776Z,1008.52
2019-02-27T09:03:20.395Z,1008.52
2019-02-27T09:04:16.777Z,1008.48
2019-02-27T09:05:19.846Z,1008.47
2019-02-27T09:06:18.623Z,1008.48
2019-02-27T09:07:16.714Z,1008.46
2019-02-27T09:08:16.715Z,1008.45
2019-02-27T09:09:17.993Z,1008.40
2019-02-27T09:10:16.716Z,1008.42
2019-02-27T09:11:16.663Z,1008.39
2019-02-27T09:12:16.653Z,1008.34
2019-02-27T09:13:16.643Z,1008.38
2019-02-27T09:14:16.669Z,1008.35
2019-02-27T09:15:16.618Z,1008.33
2019-02-27T09:16:16.641Z,1008.37
2019-02-27T09:17:16.605Z,1008.38
2019-02-27T09:18:16.590Z,1008.37
2019-02-27T09:19:16.580Z,1008.37
2019-02-27T09:20:19.552Z,1008.34
2019-02-27T09:21:17.246Z,1008.36
2019-02-27T09:22:16.737Z,1008.35
2019-02-27T09:23:18.296Z,1008.36
2019-02-27T09:24:16.524Z,1008.39
2019-02-27T09:25:16.512Z,1008.38
2019-02-27T09:26:16.527Z,1008.38
2019-02-27T09:27:16.490Z,1008.33
2019-02-27T09:28:16.512Z,1008.38
2019-02-27T09:29:18.738Z,1008.39
2019-02-27T09:30:16.463Z,1008.32
2019-02-27T09:31:16.444Z,1008.30
2019-02-27T09:32:16.477Z,1008.36
2019-02-27T09:33:17.028Z,1008.32
2019-02-27T09:34:16.533Z,1008.34
2019-02-27T09:35:16.401Z,1008.29
2019-02-27T09:36:16.384Z,1008.32
2019-02-27T09:37:17.750Z,1008.29
2019-02-27T09:38:16.403Z,1008.35
2019-02-27T09:39:16.349Z,1008.32
2019-02-27T09:40:16.379Z,1008.30
2019-02-27T09:41:16.330Z,1008.25
2019-02-27T09:42:18.994Z,1008.23
2019-02-27T09:43:16.326Z,1008.22
2019-02-27T09:44:16.327Z,1008.20
2019-02-27T09:45:16.287Z,1008.22
2019-02-27T09:46:19.272Z,1008.20
2019-02-27T09:47:16.268Z,1008.23
2019-02-27T09:48:16.254Z,1008.17
2019-02-27T09:49:16.239Z,1008.16
2019-02-27T09:50:16.249Z,1008.20
2019-02-27T09:51:16.219Z,1008.16
2019-02-27T09:52:16.240Z,1008.18
2019-02-27T09:53:16.195Z,1008.15
2019-02-27T09:54:16.185Z,1008.14
2019-02-27T09:55:20.170Z,1008.14
2019-02-27T09:56:16.195Z,1008.18
2019-02-27T09:57:16.164Z,1008.14
2019-02-27T09:58:16.194Z,1008.12
2019-02-27T09:59:16.750Z,1008.09
2019-02-27T10:00:16.120Z,1008.12
2019-02-27T10:01:16.111Z,1008.08
2019-02-27T10:02:16.170Z,1008.01
2019-02-27T10:03:20.193Z,1008.02
2019-02-27T10:04:17.162Z,1008.02
2019-02-27T10:05:16.068Z,1008.02
2019-02-27T10:06:16.084Z,1007.98
2019-02-27T10:07:17.087Z,1008.04
2019-02-27T10:08:16.095Z,1008.05
2019-02-27T10:09:16.026Z,1007.96
2019-02-27T10:10:16.056Z,1007.96
2019-02-27T10:11:18.806Z,1007.92
2019-02-27T10:12:15.989Z,1007.88
2019-02-27T10:13:15.978Z,1007.88
2019-02-27T10:14:16.410Z,1007.94
2019-02-27T10:15:15.960Z,1007.92
2019-02-27T10:16:16.001Z,1007.90
2019-02-27T10:17:15.960Z,1007.88
2019-02-27T10:18:18.958Z,1007.89
2019-02-27T10:19:17.203Z,1007.90
2019-02-27T10:20:15.943Z,1007.90
2019-02-27T10:21:15.892Z,1007.88
2019-02-27T10:22:17.843Z,1007.89
2019-02-27T10:23:15.865Z,1007.82
2019-02-27T10:24:15.854Z,1007.89
2019-02-27T10:25:15.850Z,1007.86
2019-02-27T10:26:16.547Z,1007.81
2019-02-27T10:27:15.883Z,1007.80
2019-02-27T10:28:15.842Z,1007.84
2019-02-27T10:29:15.802Z,1007.86
2019-02-27T10:30:16.723Z,1007.82
2019-02-27T10:31:15.774Z,1007.76
2019-02-27T10:32:15.763Z,1007.76
2019-02-27T10:33:15.800Z,1007.79
2019-02-27T10:34:17.703Z,1007.79
2019-02-27T10:35:15.729Z,1007.78
2019-02-27T10:36:16.351Z,1007.75
2019-02-27T10:37:18.731Z,1007.70
2019-02-27T10:38:15.695Z,1007.72
2019-02-27T10:39:15.728Z,1007.70
2019-02-27T10:40:15.722Z,1007.73
2019-02-27T10:41:15.661Z,1007.73
2019-02-27T10:42:15.653Z,1007.69
2019-02-27T10:43:15.677Z,1007.65
2019-02-27T10:44:15.629Z,1007.65
2019-02-27T10:45:15.645Z,1007.67
2019-02-27T10:46:15.634Z,1007.66
2019-02-27T10:47:15.592Z,1007.64
2019-02-27T10:48:15.583Z,1007.60
2019-02-27T10:49:15.571Z,1007.61
2019-02-27T10:50:15.559Z,1007.61
2019-02-27T10:51:15.590Z,1007.60
2019-02-27T10:52:15.569Z,1007.60
2019-02-27T10:53:15.529Z,1007.58
2019-02-27T10:54:15.515Z,1007.53
2019-02-27T10:55:15.506Z,1007.52
2019-02-27T10:56:15.495Z,1007.56
2019-02-27T10:57:15.544Z,1007.58
2019-02-27T10:58:15.528Z,1007.54
2019-02-27T10:59:15.485Z,1007.53
2019-02-27T11:00:15.448Z,1007.49
2019-02-27T11:01:15.445Z,1007.52
2019-02-27T11:02:15.430Z,1007.51
2019-02-27T11:03:15.417Z,1007.49
2019-02-27T11:04:15.470Z,1007.53
2019-02-27T11:05:17.801Z,1007.46
2019-02-27T11:06:15.383Z,1007.42
2019-02-27T11:07:15.778Z,1007.45
2019-02-27T11:08:15.369Z,1007.36
2019-02-27T11:09:15.345Z,1007.40
2019-02-27T11:10:15.486Z,1007.36
2019-02-27T11:11:16.268Z,1007.36
2019-02-27T11:12:15.314Z,1007.32
2019-02-27T11:13:15.315Z,1007.33
2019-02-27T11:14:15.336Z,1007.31
2019-02-27T11:15:15.282Z,1007.34
2019-02-27T11:16:15.549Z,1007.28
2019-02-27T11:17:15.256Z,1007.33
2019-02-27T11:18:15.309Z,1007.35
2019-02-27T11:19:16.625Z,1007.30
2019-02-27T11:20:20.319Z,1007.31
2019-02-27T11:21:16.251Z,1007.23
2019-02-27T11:22:15.203Z,1007.23
2019-02-27T11:23:15.195Z,1007.25
2019-02-27T11:24:17.335Z,1007.25
2019-02-27T11:25:15.177Z,1007.25
2019-02-27T11:26:15.159Z,1007.25
2019-02-27T11:27:16.793Z,1007.20
2019-02-27T11:28:15.140Z,1007.18
2019-02-27T11:29:15.129Z,1007.16
2019-02-27T11:30:15.113Z,1007.19
2019-02-27T11:31:15.608Z,1007.15
2019-02-27T11:32:15.104Z,1007.16
2019-02-27T11:33:25.122Z,1007.15
2019-02-27T11:34:16.281Z,1007.09
2019-02-27T11:35:15.058Z,1007.09
2019-02-27T11:36:15.047Z,1007.10
2019-02-27T11:37:16.502Z,1007.07
2019-02-27T11:38:15.024Z,1007.08
2019-02-27T11:39:15.051Z,1007.02
2019-02-27T11:40:15.004Z,1006.99
2019-02-27T11:41:15.898Z,1006.96
2019-02-27T11:42:14.980Z,1006.88
2019-02-27T11:43:15.009Z,1006.89
2019-02-27T11:44:14.981Z,1006.85
2019-02-27T11:45:14.990Z,1006.89
2019-02-27T11:46:14.937Z,1006.88
2019-02-27T11:47:14.926Z,1006.86
2019-02-27T11:48:14.914Z,1006.85
2019-02-27T11:49:14.906Z,1006.87
2019-02-27T11:50:17.899Z,1006.86
2019-02-27T11:51:17.515Z,1006.85
2019-02-27T11:52:15.869Z,1006.81
2019-02-27T11:53:14.857Z,1006.80
2019-02-27T11:54:14.851Z,1006.77
2019-02-27T11:55:15.522Z,1006.77
2019-02-27T11:56:14.869Z,1006.73
2019-02-27T11:57:14.846Z,1006.74
2019-02-27T11:58:14.808Z,1006.70
2019-02-27T11:59:14.800Z,1006.69
2019-02-27T12:00:14.783Z,1006.67
2019-02-27T12:01:14.768Z,1006.69
2019-02-27T12:02:14.785Z,1006.68
2019-02-27T12:03:14.785Z,1006.61
2019-02-27T12:04:19.297Z,1006.58
2019-02-27T12:05:15.745Z,1006.57